Time;durP1;ratioP1;P1;durP2;ratioP2;P2;SDS_P1;SDS_P2;PMS_P1;PMS_P2;Temp;Humidity;BMP_temperature;BMP_pressure;BME280_temperature;BME280_humidity;BME280_pressure;Samples;Min_cycle;Max_cycle;Signal;HPM_P1;HPM_P2
2023/01/12 00:01:55;;;;;;;7.63;1.48;;;;;;;15.28;50.43;100985.78;5058073;28;20500;-71
2023/01/12 00:04:21;;;;;;;7.63;1.17;;;;;;;15.30;50.42;100986.47;5037603;28;20118;-72
2023/01/12 00:06:46;;;;;;;13.45;1.40;;;;;;;15.31;48.94;100988.19;5055715;28;20081;-71
2023/01/12 00:09:12;;;;;;;3.45;0.98;;;;;;;15.33;50.15;100980.78;5055322;28;20400;-72
2023/01/12 00:11:38;;;;;;;7.10;1.33;;;;;;;15.33;50.48;100983.47;5055297;28;20090;-72
2023/01/12 00:14:05;;;;;;;6.70;1.02;;;;;;;15.34;49.77;100974.38;5020603;28;20032;-71
2023/01/12 00:16:33;;;;;;;7.05;1.15;;;;;;;15.35;50.51;100978.78;5037485;28;20475;-73
2023/01/12 00:19:19;;;;;;;9.15;1.25;;;;;;;15.34;50.42;100982.47;5037714;28;20033;-73
2023/01/12 00:24:22;;;;;;;13.80;1.30;;;;;;;15.34;50.42;100985.19;5054971;28;20041;-72
2023/01/12 00:26:48;;;;;;;6.13;0.80;;;;;;;15.34;49.45;100982.47;5054987;28;20033;-72
2023/01/12 00:29:15;;;;;;;8.60;1.25;;;;;;;15.37;50.03;100976.78;5037415;28;20040;-71
2023/01/12 00:31:40;;;;;;;11.30;1.67;;;;;;;15.41;50.63;100961.13;5055253;28;20036;-72
2023/01/12 00:34:06;;;;;;;7.25;0.90;;;;;;;15.45;49.59;100965.19;5054786;28;20068;-71
2023/01/12 00:36:31;;;;;;;5.18;1.00;;;;;;;15.46;50.70;100962.38;5037320;28;20392;-70
2023/01/12 00:38:57;;;;;;;5.28;0.93;;;;;;;15.47;50.63;100960.50;5036809;28;20033;-71
2023/01/12 00:46:49;;;;;;;6.28;1.08;;;;;;;15.54;49.36;100938.13;5054481;28;20527;-71
2023/01/12 00:49:15;;;;;;;8.27;1.75;;;;;;;15.56;50.06;100944.22;5019512;28;20053;-72
2023/01/12 00:51:40;;;;;;;5.63;1.13;;;;;;;15.60;49.03;100939.34;5037015;28;20420;-71
2023/01/12 00:54:07;;;;;;;10.27;1.38;;;;;;;15.62;50.56;100921.13;5054513;28;20087;-71
2023/01/12 00:56:36;;;;;;;8.50;1.40;;;;;;;15.64;50.13;100929.91;5036626;28;20044;-71
2023/01/12 00:59:02;;;;;;;11.75;2.17;;;;;;;15.66;49.29;100934.13;5036498;28;20119;-70
2023/01/12 01:01:28;;;;;;;5.47;1.15;;;;;;;15.69;50.25;100927.56;5054323;28;20036;-71
2023/01/12 01:03:53;;;;;;;11.60;2.10;;;;;;;15.69;49.47;100917.63;5036961;28;20037;-69
2023/01/12 01:06:20;;;;;;;9.20;1.05;;;;;;;15.71;49.21;100921.03;5054268;28;20515;-70
2023/01/12 01:08:45;;;;;;;6.30;1.05;;;;;;;15.71;50.32;100915.63;5036585;28;20037;-72
2023/01/12 01:11:11;;;;;;;9.82;1.65;;;;;;;15.73;49.36;100924.41;5009802;28;20382;-70
2023/01/12 01:13:42;;;;;;;13.55;1.40;;;;;;;15.76;49.57;100916.97;5021746;28;20040;-70
2023/01/12 01:16:09;;;;;;;9.73;1.58;;;;;;;15.78;49.30;100910.41;5054101;28;20021;-70
2023/01/12 01:18:35;;;;;;;6.53;1.50;;;;;;;15.79;49.04;100917.50;5036989;28;20025;-70
2023/01/12 01:21:01;;;;;;;6.05;1.20;;;;;;;15.81;49.96;100914.66;5036286;28;20029;-70
2023/01/12 01:23:26;;;;;;;5.47;1.40;;;;;;;15.83;49.56;100904.53;5053644;28;20577;-71
2023/01/12 01:25:52;;;;;;;14.20;1.00;;;;;;;15.86;49.57;100894.25;5011991;28;20041;-70
2023/01/12 01:28:18;;;;;;;5.40;1.13;;;;;;;15.88;50.10;100894.94;5036542;28;20060;-71
2023/01/12 01:30:45;;;;;;;11.43;1.30;;;;;;;15.90;49.79;100892.06;5054344;28;20036;-70
2023/01/12 01:33:10;;;;;;;10.45;1.27;;;;;;;15.88;49.16;100894.09;5053610;28;20112;-72
2023/01/12 01:35:36;;;;;;;12.35;2.00;;;;;;;15.89;49.90;100888.53;5053443;28;20124;-71
2023/01/12 01:38:02;;;;;;;5.10;1.10;;;;;;;15.88;50.37;100889.53;5026796;28;20077;-71
2023/01/12 01:40:27;;;;;;;8.02;1.88;;;;;;;15.90;50.39;100879.41;5037856;28;20025;-71
2023/01/12 01:42:53;;;;;;;11.20;1.15;;;;;;;15.92;50.10;100879.25;5054178;28;20028;-70
2023/01/12 01:45:18;;;;;;;6.10;1.60;;;;;;;15.93;49.91;100875.53;5035554;28;20041;-71
2023/01/12 01:47:50;;;;;;;6.32;1.30;;;;;;;15.93;49.81;100870.13;5053432;28;20519;-71
2023/01/12 01:50:23;;;;;;;8.30;1.48;;;;;;;15.96;50.12;100869.81;5035375;28;20041;-71
2023/01/12 01:52:52;;;;;;;5.32;1.40;;;;;;;15.98;50.07;100870.50;5035702;28;20104;-71
2023/01/12 01:55:32;;;;;;;10.13;1.50;;;;;;;15.99;49.24;100864.09;5035194;28;20041;-71
2023/01/12 01:58:03;;;;;;;6.38;1.10;;;;;;;15.99;50.57;100864.09;5035546;28;20504;-71
2023/01/12 02:00:28;;;;;;;2.47;1.02;;;;;;;15.95;50.55;100860.00;5019144;28;20025;-72
2023/01/12 02:02:54;;;;;;;5.32;1.13;;;;;;;15.95;49.35;100860.84;5002941;28;20048;-72
2023/01/12 02:05:23;;;;;;;10.05;1.55;;;;;;;15.92;50.48;100858.47;5044320;28;20112;-72
2023/01/12 02:07:49;;;;;;;17.33;2.42;;;;;;;15.88;49.53;100857.13;5053044;28;20183;-72
2023/01/12 02:10:16;;;;;;;4.68;1.05;;;;;;;15.84;49.70;100849.50;5035305;28;20543;-73
2023/01/12 02:18:44;;;;;;;9.88;2.05;;;;;;;15.67;49.89;100835.91;5007407;28;20037;-72
2023/01/12 02:21:41;;;;;;;11.23;1.60;;;;;;;15.63;49.47;100837.25;5019152;28;20029;-73
2023/01/12 02:24:23;;;;;;;4.53;1.00;;;;;;;15.57;50.85;100834.34;5052702;28;20045;-72
2023/01/12 02:27:16;;;;;;;5.18;1.20;;;;;;;15.51;50.50;100835.00;5018700;28;20029;-72
2023/01/12 02:30:03;;;;;;;12.20;1.85;;;;;;;15.45;49.75;100822.97;5052933;28;20025;-73
2023/01/12 02:32:57;;;;;;;9.38;1.33;;;;;;;15.40;49.89;100829.84;5053036;28;20033;-74
2023/01/12 02:35:40;;;;;;;10.48;1.35;;;;;;;15.39;51.18;100834.38;5002353;28;20114;-73
2023/01/12 02:38:06;;;;;;;8.98;1.20;;;;;;;15.39;50.32;100829.00;5052813;28;20496;-73
2023/01/12 02:40:38;;;;;;;4.10;1.23;;;;;;;15.36;51.24;100818.50;5034769;28;20040;-73
2023/01/12 02:43:12;;;;;;;4.82;1.35;;;;;;;15.36;50.24;100821.22;5052597;28;20427;-72
2023/01/12 02:45:44;;;;;;;8.02;1.30;;;;;;;15.39;51.39;100815.50;5035241;28;20025;-72
2023/01/12 02:48:21;;;;;;;8.17;1.53;;;;;;;15.38;51.35;100812.97;5035069;28;20039;-71
2023/01/12 02:50:55;;;;;;;13.73;1.52;;;;;;;15.34;51.61;100809.75;5018106;28;20139;-72
2023/01/12 02:53:27;;;;;;;15.57;1.90;;;;;;;15.34;50.37;100798.94;5052448;28;20045;-72
2023/01/12 02:55:53;;;;;;;8.77;1.33;;;;;;;15.33;50.96;100801.78;5034545;28;20547;-73
2023/01/12 02:58:21;;;;;;;12.65;1.63;;;;;;;15.30;51.41;100792.16;5034890;28;20484;-71
2023/01/12 03:00:48;;;;;;;11.15;2.38;;;;;;;15.30;51.96;100804.84;5052816;28;20032;-72
2023/01/12 03:03:16;;;;;;;6.45;1.25;;;;;;;15.28;50.65;100783.38;5017992;28;20033;-74
2023/01/12 03:05:42;;;;;;;10.23;1.20;;;;;;;15.27;51.91;100784.38;5034851;28;20120;-72
2023/01/12 03:08:12;;;;;;;6.78;1.95;;;;;;;15.25;51.94;100789.09;5034915;28;20053;-73
2023/01/12 03:10:50;;;;;;;12.60;1.63;;;;;;;15.23;52.16;100783.03;5034774;28;20029;-73
2023/01/12 03:13:15;;;;;;;8.30;1.60;;;;;;;15.20;51.12;100780.66;5038845;28;20025;-72
2023/01/12 03:15:45;;;;;;;6.93;1.33;;;;;;;15.19;52.01;100768.16;5039533;28;20020;-73
2023/01/12 03:18:26;;;;;;;6.10;1.42;;;;;;;15.17;51.24;100762.06;5022439;28;20033;-73
2023/01/12 03:20:58;;;;;;;9.77;1.10;;;;;;;15.16;51.64;100757.66;5038315;28;20094;-72
2023/01/12 03:23:30;;;;;;;8.80;1.17;;;;;;;15.14;51.92;100768.63;5021973;28;20397;-72
2023/01/12 03:25:56;;;;;;;8.80;1.08;;;;;;;15.16;52.35;100754.97;5056008;28;20411;-72
2023/01/12 03:28:24;;;;;;;8.95;1.10;;;;;;;15.14;52.28;100765.09;5021886;28;20031;-72
2023/01/12 03:30:55;;;;;;;6.38;1.63;;;;;;;15.13;51.18;100758.03;5038643;28;20044;-72
2023/01/12 03:33:21;;;;;;;5.40;1.20;;;;;;;15.12;51.48;100746.38;5055953;28;20086;-73
2023/01/12 03:36:07;;;;;;;10.77;1.55;;;;;;;15.17;50.94;100737.78;5037994;28;20041;-73
2023/01/12 03:38:42;;;;;;;5.38;1.13;;;;;;;15.18;52.47;100717.06;5055943;28;20029;-72
2023/01/12 03:41:19;;;;;;;11.73;2.80;;;;;;;15.19;52.12;100722.28;5037929;28;20083;-72
2023/01/12 03:43:49;;;;;;;6.95;1.50;;;;;;;15.17;52.43;100724.28;5031408;28;20030;-72
2023/01/12 03:46:23;;;;;;;8.60;1.58;;;;;;;15.19;51.36;100713.34;5018128;28;20386;-72
2023/01/12 03:48:59;;;;;;;6.10;0.90;;;;;;;15.16;51.49;100709.09;5018694;28;20401;-71
2023/01/12 03:51:29;;;;;;;8.02;1.60;;;;;;;15.16;52.54;100695.63;5037930;28;20200;-73
2023/01/12 03:53:55;;;;;;;2.25;0.98;;;;;;;15.15;51.55;100699.34;5037063;28;20112;-74
2023/01/12 03:56:23;;;;;;;8.23;1.13;;;;;;;15.15;52.74;100688.53;5055328;28;20029;-72
2023/01/12 03:58:49;;;;;;;8.15;1.27;;;;;;;15.15;52.76;100681.31;5030584;28;20022;-73
2023/01/12 04:01:14;;;;;;;3.67;1.10;;;;;;;15.17;51.34;100697.31;5017694;28;20033;-71
2023/01/12 04:03:40;;;;;;;11.77;1.10;;;;;;;15.19;51.61;100689.91;5001707;28;20029;-72
2023/01/12 04:06:07;;;;;;;9.70;1.52;;;;;;;15.18;52.52;100680.13;5035248;28;20041;-72
2023/01/12 04:08:33;;;;;;;12.27;1.23;;;;;;;15.18;52.72;100681.97;5035479;28;20033;-71
2023/01/12 04:10:58;;;;;;;5.43;1.60;;;;;;;15.17;51.77;100662.25;5016892;28;20382;-73
2023/01/12 04:13:23;;;;;;;7.15;1.33;;;;;;;15.15;51.51;100665.13;5000990;28;20109;-72
2023/01/12 04:15:49;;;;;;;7.68;1.25;;;;;;;15.15;52.80;100661.56;5017806;28;20045;-72
2023/01/12 04:18:14;;;;;;;6.43;1.33;;;;;;;15.13;52.07;100639.31;5017414;28;20117;-72
2023/01/12 04:20:40;;;;;;;7.30;1.35;;;;;;;15.09;52.14;100649.56;5017270;28;20037;-73
2023/01/12 04:23:06;;;;;;;3.20;0.88;;;;;;;15.10;52.45;100650.44;5015997;28;20041;-73
2023/01/12 04:25:32;;;;;;;4.93;0.95;;;;;;;15.10;52.74;100634.22;5017179;28;20079;-73
2023/01/12 04:28:01;;;;;;;11.07;1.40;;;;;;;15.10;52.60;100642.31;5017209;28;20029;-75
2023/01/12 04:30:27;;;;;;;3.80;0.85;;;;;;;15.09;52.12;100657.66;5001693;28;20029;-73
2023/01/12 04:32:54;;;;;;;5.25;0.98;;;;;;;15.09;53.26;100625.28;5017374;28;20030;-72
2023/01/12 04:35:20;;;;;;;4.55;1.08;;;;;;;15.07;52.79;100629.97;5000900;28;20029;-73
2023/01/12 04:37:46;;;;;;;4.63;0.75;;;;;;;15.06;53.09;100611.28;5034619;28;20036;-72
2023/01/12 04:40:13;;;;;;;3.30;0.88;;;;;;;15.03;52.14;100600.81;5002591;28;20041;-73
2023/01/12 04:43:09;;;;;;;2.88;0.43;;;;;;;14.98;52.52;100576.19;5054985;28;20017;-73
2023/01/12 04:45:37;;;;;;;4.70;0.93;;;;;;;14.97;53.29;100574.47;5022984;28;20041;-73
2023/01/12 04:48:04;;;;;;;3.97;0.57;;;;;;;14.95;51.87;100576.50;5017260;28;20037;-72
2023/01/12 04:50:30;;;;;;;3.35;1.17;;;;;;;14.95;52.09;100587.28;5029816;28;20121;-73
2023/01/12 04:52:56;;;;;;;7.60;1.48;;;;;;;14.92;53.03;100555.25;5012153;28;20045;-73
2023/01/12 04:55:22;;;;;;;7.03;1.42;;;;;;;14.89;53.63;100550.19;5034534;28;20117;-71
2023/01/12 04:57:47;;;;;;;5.93;0.80;;;;;;;14.88;53.69;100551.22;5017340;28;20469;-73
2023/01/12 05:00:13;;;;;;;3.85;0.73;;;;;;;14.87;52.92;100544.97;5016751;28;20446;-73
2023/01/12 05:02:38;;;;;;;4.75;0.82;;;;;;;14.88;52.16;100537.72;5000352;28;20466;-72
2023/01/12 05:05:04;;;;;;;7.30;1.20;;;;;;;14.87;53.54;100544.13;5016749;28;20037;-73
2023/01/12 05:07:30;;;;;;;3.63;1.00;;;;;;;14.88;52.39;100540.44;5000108;28;20382;-73
2023/01/12 05:12:39;;;;;;;12.18;1.38;;;;;;;14.82;53.06;100528.44;5054102;28;20090;-71
2023/01/12 05:15:05;;;;;;;8.88;2.00;;;;;;;14.82;54.11;100550.00;5053905;28;20460;-73
2023/01/12 05:17:31;;;;;;;8.32;1.60;;;;;;;14.82;53.46;100522.19;5040978;28;20493;-72
2023/01/12 05:19:57;;;;;;;6.53;1.60;;;;;;;14.83;53.60;100523.88;5042482;28;20040;-72
2023/01/12 05:22:22;;;;;;;2.78;0.90;;;;;;;14.84;53.30;100525.56;5051730;28;20389;-74
2023/01/12 05:24:47;;;;;;;5.20;0.90;;;;;;;14.81;54.13;100512.41;5000242;28;20116;-73
2023/01/12 05:27:13;;;;;;;5.57;1.55;;;;;;;14.79;53.90;100507.19;5034563;28;20041;-73
2023/01/12 05:29:38;;;;;;;9.70;1.15;;;;;;;14.80;53.86;100494.53;5036012;28;20122;-71
2023/01/12 05:32:03;;;;;;;5.30;0.80;;;;;;;14.77;53.67;100509.19;5035893;28;20029;-73
2023/01/12 05:34:29;;;;;;;9.13;1.40;;;;;;;14.74;54.01;100517.59;5018822;28;20447;-72
2023/01/12 05:36:54;;;;;;;11.15;0.93;;;;;;;14.72;53.27;100505.28;5053988;28;20028;-72
2023/01/12 05:39:20;;;;;;;10.57;1.55;;;;;;;14.75;53.01;100499.59;5018079;28;20033;-73
2023/01/12 05:44:30;;;;;;;14.68;1.85;;;;;;;14.74;53.91;100504.13;5040685;28;20180;-72
2023/01/12 05:46:55;;;;;;;5.10;1.35;;;;;;;14.74;54.20;100501.44;4999320;28;20120;-73
2023/01/12 05:49:20;;;;;;;10.27;0.93;;;;;;;14.76;54.11;100509.38;5016221;28;20034;-71
2023/01/12 05:51:46;;;;;;;7.30;1.02;;;;;;;14.76;52.85;100487.78;5016109;28;20053;-74
2023/01/12 05:54:11;;;;;;;4.18;1.20;;;;;;;14.75;52.94;100484.25;4999014;28;20470;-72
2023/01/12 05:56:37;;;;;;;3.60;0.70;;;;;;;14.78;53.89;100493.84;5015623;28;20033;-72
2023/01/12 05:59:03;;;;;;;4.40;1.52;;;;;;;14.78;53.66;100480.38;5015813;28;20441;-73
2023/01/12 06:01:29;;;;;;;8.80;2.75;;;;;;;14.81;52.79;100485.44;4999190;28;20401;-72
2023/01/12 06:03:58;;;;;;;5.75;1.98;;;;;;;14.82;54.14;100473.66;5033475;28;20477;-73
2023/01/12 06:06:25;;;;;;;4.45;0.85;;;;;;;14.82;52.98;100473.66;5018886;28;20048;-73
2023/01/12 06:08:52;;;;;;;14.35;1.30;;;;;;;14.84;53.72;100474.34;5053452;28;20032;-75
2023/01/12 06:14:03;;;;;;;9.02;1.27;;;;;;;14.87;54.26;100471.31;5018180;28;20201;-73
2023/01/12 06:16:29;;;;;;;6.38;1.67;;;;;;;14.87;53.87;100484.78;4999005;28;20477;-73
2023/01/12 06:18:55;;;;;;;4.40;0.90;;;;;;;14.86;54.19;100478.53;5016178;28;20113;-73
2023/01/12 06:21:21;;;;;;;1.73;0.55;;;;;;;14.88;53.18;100467.63;5015793;28;20033;-73
2023/01/12 06:23:46;;;;;;;3.55;1.10;;;;;;;14.90;53.16;100477.22;4998072;28;20099;-72
2023/01/12 06:26:12;;;;;;;9.40;0.90;;;;;;;14.91;54.38;100481.59;4998838;28;20045;-72
2023/01/12 06:28:39;;;;;;;11.55;1.08;;;;;;;14.96;52.77;100478.41;5015879;28;20448;-72
2023/01/12 06:31:06;;;;;;;6.25;0.65;;;;;;;14.98;53.09;100481.78;5016351;28;20021;-72
2023/01/12 06:33:32;;;;;;;3.88;0.40;;;;;;;14.98;54.51;100485.31;5035390;28;20017;-72
2023/01/12 06:35:58;;;;;;;5.85;0.98;;;;;;;15.00;54.56;100477.06;5002169;28;20564;-73
2023/01/12 06:38:25;;;;;;;5.20;1.08;;;;;;;15.00;53.11;100477.06;5014840;28;20037;-72
2023/01/12 06:40:50;;;;;;;1.98;0.55;;;;;;;15.01;54.02;100467.97;4998759;28;20030;-72
2023/01/12 06:43:16;;;;;;;8.65;0.93;;;;;;;15.04;54.29;100494.59;5035182;28;20087;-73
2023/01/12 06:45:41;;;;;;;9.95;1.13;;;;;;;15.05;54.21;100491.72;5034977;28;20059;-73
2023/01/12 06:48:07;;;;;;;3.10;1.00;;;;;;;15.09;53.16;100481.47;5039597;28;20037;-73
2023/01/12 06:50:33;;;;;;;6.72;0.95;;;;;;;15.10;53.03;100483.16;5035680;28;20053;-73
2023/01/12 06:52:59;;;;;;;4.07;0.82;;;;;;;15.11;54.35;100482.13;5055830;28;20049;-72
2023/01/12 06:55:25;;;;;;;11.27;1.38;;;;;;;15.15;53.15;100480.78;5039059;28;20037;-73
2023/01/12 06:57:50;;;;;;;3.70;0.57;;;;;;;15.13;53.37;100486.34;5057909;28;20044;-72
2023/01/12 07:00:16;;;;;;;3.58;1.05;;;;;;;15.16;54.30;100477.06;5058857;28;20112;-73
2023/01/12 07:02:41;;;;;;;2.65;0.70;;;;;;;15.18;53.26;100488.56;5042434;28;20500;-74
2023/01/12 07:05:07;;;;;;;1.95;0.98;;;;;;;15.20;53.66;100489.22;5042219;28;20416;-73
2023/01/12 07:07:33;;;;;;;1.98;0.57;;;;;;;15.23;53.48;100488.91;5041747;28;20040;-73
2023/01/12 07:09:58;;;;;;;8.90;1.02;;;;;;;15.24;54.37;100487.03;5041855;28;20142;-72
2023/01/12 07:12:24;;;;;;;2.20;0.60;;;;;;;15.22;53.55;100479.09;5059159;28;20161;-71
2023/01/12 07:14:49;;;;;;;6.28;0.52;;;;;;;15.26;54.16;100499.34;5042238;28;20032;-73
2023/01/12 07:17:15;;;;;;;3.80;0.70;;;;;;;15.27;53.75;100490.22;5076509;28;20085;-74
2023/01/12 07:19:41;;;;;;;11.25;0.88;;;;;;;15.27;53.85;100486.72;5076431;28;20028;-73
2023/01/12 07:22:06;;;;;;;6.18;0.50;;;;;;;15.27;53.93;100489.41;5041582;28;20028;-71
2023/01/12 07:24:32;;;;;;;4.20;0.63;;;;;;;15.27;53.77;100500.22;5058803;28;20017;-73
2023/01/12 07:26:58;;;;;;;3.80;0.55;;;;;;;15.28;54.31;100501.88;5041637;28;20031;-74
2023/01/12 07:29:24;;;;;;;3.75;0.40;;;;;;;15.31;54.27;100491.59;5041950;28;20035;-74
2023/01/12 07:31:49;;;;;;;2.30;0.50;;;;;;;15.31;53.99;100507.78;5041737;28;20036;-73
2023/01/12 07:34:15;;;;;;;1.23;0.35;;;;;;;15.31;53.35;100496.13;5058400;28;20024;-73
2023/01/12 07:36:41;;;;;;;4.05;0.73;;;;;;;15.32;53.80;100496.00;5042385;28;20388;-74
2023/01/12 07:39:07;;;;;;;3.42;0.30;;;;;;;15.32;53.90;100496.00;5076265;28;20036;-73
2023/01/12 07:44:17;;;;;;;2.83;0.50;;;;;;;15.30;54.31;100495.28;5047204;28;20098;-73
2023/01/12 07:46:42;;;;;;;4.38;0.60;;;;;;;15.31;55.03;100517.72;5041754;28;20029;-73
2023/01/12 07:49:08;;;;;;;2.63;0.63;;;;;;;15.31;54.09;100510.47;5058069;28;20115;-74
2023/01/12 07:51:33;;;;;;;2.55;0.68;;;;;;;15.32;53.74;100509.47;5041972;28;20040;-73
2023/01/12 07:53:59;;;;;;;2.40;0.95;;;;;;;15.33;54.71;100497.66;5075407;28;20048;-72
2023/01/12 07:56:24;;;;;;;0.77;0.43;;;;;;;15.36;54.18;100494.63;5075375;28;20078;-73
2023/01/12 07:58:49;;;;;;;3.30;0.45;;;;;;;15.36;53.72;100497.31;5057528;28;20052;-72
2023/01/12 08:01:15;;;;;;;2.85;0.75;;;;;;;15.37;54.95;100509.81;5075519;28;20366;-73
2023/01/12 08:03:41;;;;;;;1.85;0.55;;;;;;;15.37;53.85;100517.06;5058121;28;20029;-74
2023/01/12 08:06:06;;;;;;;5.22;0.85;;;;;;;15.38;53.69;100510.66;5057525;28;20051;-73
2023/01/12 08:08:32;;;;;;;1.13;0.40;;;;;;;15.38;54.11;100516.88;5057584;28;20028;-72
2023/01/12 08:11:05;;;;;;;4.60;0.65;;;;;;;15.37;54.16;100512.53;5057409;28;20056;-74
2023/01/12 08:13:31;;;;;;;4.80;0.63;;;;;;;15.39;53.57;100526.69;5057430;28;20035;-71
2023/01/12 08:16:01;;;;;;;1.60;0.47;;;;;;;15.38;54.94;100541.19;5058019;28;20439;-73
2023/01/12 08:18:31;;;;;;;1.67;0.57;;;;;;;15.38;54.73;100530.38;5075706;28;20182;-72
2023/01/12 08:20:59;;;;;;;5.80;1.27;;;;;;;15.40;55.23;100539.19;5075460;28;20083;-73
2023/01/12 08:23:28;;;;;;;1.73;0.45;;;;;;;15.46;54.91;100540.38;5040571;28;20036;-74
2023/01/12 08:25:58;;;;;;;4.10;1.02;;;;;;;15.48;54.92;100523.00;5074842;28;20081;-73
2023/01/12 08:28:30;;;;;;;1.40;0.40;;;;;;;15.49;54.64;100538.22;5056977;28;20056;-73
2023/01/12 08:30:55;;;;;;;2.75;0.30;;;;;;;15.50;53.92;100539.03;5057571;28;20020;-72
2023/01/12 08:33:21;;;;;;;3.00;0.75;;;;;;;15.49;54.22;100532.81;5074818;28;20406;-71
2023/01/12 08:35:47;;;;;;;3.15;0.50;;;;;;;15.54;53.88;100540.41;5056635;28;20064;-72
2023/01/12 08:38:12;;;;;;;5.05;0.60;;;;;;;15.56;54.21;100538.38;5074972;28;20040;-73
2023/01/12 08:46:09;;;;;;;3.55;0.50;;;;;;;15.59;55.44;100543.44;5074666;28;20503;-73
2023/01/12 08:48:38;;;;;;;0.73;0.47;;;;;;;15.61;55.11;100539.53;5075074;28;20043;-71
2023/01/12 08:51:04;;;;;;;1.77;0.40;;;;;;;15.63;54.29;100547.50;5074509;28;20035;-72
2023/01/12 08:53:30;;;;;;;3.88;0.50;;;;;;;15.62;55.00;100538.53;5074255;28;20041;-74
2023/01/12 08:55:55;;;;;;;2.33;0.55;;;;;;;15.64;55.23;100546.47;5039831;28;20497;-74
2023/01/12 08:58:21;;;;;;;3.80;1.00;;;;;;;15.64;54.58;100552.72;5056503;28;20067;-71
2023/01/12 09:00:47;;;;;;;0.88;0.25;;;;;;;15.69;55.30;100534.16;5023902;28;20039;-72
2023/01/12 09:03:13;;;;;;;3.50;0.55;;;;;;;15.70;54.84;100546.66;5056481;28;20033;-73
2023/01/12 09:05:38;;;;;;;1.45;0.45;;;;;;;15.73;53.72;100549.00;5056453;28;20434;-72
2023/01/12 09:08:04;;;;;;;2.13;0.95;;;;;;;15.74;55.21;100556.06;5056274;28;20041;-72
2023/01/12 09:10:29;;;;;;;1.95;0.40;;;;;;;15.78;54.29;100550.34;5056004;28;20021;-71
2023/01/12 09:12:55;;;;;;;1.05;0.50;;;;;;;15.83;53.92;100556.09;5074791;28;20381;-72
2023/01/12 09:15:21;;;;;;;1.42;0.32;;;;;;;15.84;53.82;100555.91;5056431;28;20025;-71
2023/01/12 09:17:51;;;;;;;0.57;0.28;;;;;;;15.84;54.13;100558.63;5056334;28;20082;-73
2023/01/12 09:20:16;;;;;;;1.20;0.30;;;;;;;15.85;54.43;100559.47;5056212;28;20035;-72
2023/01/12 09:22:42;;;;;;;2.35;0.60;;;;;;;15.85;55.53;100565.72;5055920;28;20037;-72
2023/01/12 09:25:07;;;;;;;3.88;0.60;;;;;;;15.85;54.18;100568.41;5039061;28;20564;-72
2023/01/12 09:27:33;;;;;;;4.85;0.30;;;;;;;15.87;55.12;100562.84;5056482;28;20036;-73
2023/01/12 09:29:58;;;;;;;7.88;1.20;;;;;;;15.88;54.50;100569.94;5073770;28;20056;-73
2023/01/12 09:32:24;;;;;;;3.92;0.75;;;;;;;15.91;54.52;100575.00;5073697;28;20032;-73
2023/01/12 09:34:49;;;;;;;2.28;0.65;;;;;;;15.91;54.49;100575.84;5056133;28;20036;-73
2023/01/12 09:37:15;;;;;;;4.28;0.70;;;;;;;15.93;55.56;100578.38;5039087;28;20063;-72
2023/01/12 09:39:40;;;;;;;2.42;0.40;;;;;;;15.96;55.19;100575.34;5073956;28;20111;-72
2023/01/12 09:47:56;;;;;;;1.95;0.50;;;;;;;15.97;55.03;100579.72;5058405;28;20039;-73
2023/01/12 09:50:23;;;;;;;5.55;0.50;;;;;;;15.99;55.72;100585.81;5073267;28;20531;-72
2023/01/12 09:53:12;;;;;;;11.25;2.90;;;;;;;16.02;54.13;100588.16;5038562;28;20109;-73
2023/01/12 09:55:49;;;;;;;11.48;3.55;;;;;;;16.04;55.78;100586.13;5059182;28;20029;-72
2023/01/12 09:58:14;;;;;;;18.80;5.22;;;;;;;16.05;54.77;100604.84;5055413;28;20031;-74
2023/01/12 10:00:39;;;;;;;10.32;3.80;;;;;;;16.08;54.15;100587.50;5055754;28;20020;-73
2023/01/12 10:03:23;;;;;;;3.03;1.45;;;;;;;16.09;55.32;100599.97;5055537;28;20082;-72
2023/01/12 10:05:54;;;;;;;11.20;2.28;;;;;;;16.09;54.91;100605.38;5038587;28;20496;-73
2023/01/12 10:08:19;;;;;;;7.60;1.85;;;;;;;16.11;54.47;100604.19;5038542;28;20043;-73
2023/01/12 10:11:10;;;;;;;2.88;2.35;;;;;;;16.13;54.48;100598.63;5073160;28;20111;-73
2023/01/12 10:14:13;;;;;;;3.45;0.68;;;;;;;16.12;55.11;100594.22;5055165;28;20113;-72
2023/01/12 10:16:57;;;;;;;2.75;0.90;;;;;;;16.12;55.35;100600.47;5072943;28;20036;-72
2023/01/12 10:19:28;;;;;;;7.53;1.98;;;;;;;16.16;54.68;100611.78;5054877;28;20048;-72
2023/01/12 10:21:54;;;;;;;3.25;0.88;;;;;;;16.18;55.06;100612.47;5055359;28;20021;-73
2023/01/12 10:24:21;;;;;;;3.13;0.70;;;;;;;16.24;55.02;100609.94;5038115;28;20106;-73
2023/01/12 10:26:50;;;;;;;9.77;0.80;;;;;;;16.24;55.20;100598.28;5038676;28;20028;-72
2023/01/12 10:29:16;;;;;;;4.40;0.52;;;;;;;16.24;54.67;100604.53;5055197;28;20583;-72
2023/01/12 10:31:41;;;;;;;0.68;0.17;;;;;;;16.28;54.35;100605.84;5039254;28;20116;-72
2023/01/12 10:34:09;;;;;;;2.30;0.32;;;;;;;16.32;55.03;100606.38;5054511;28;20043;-72
2023/01/12 10:36:48;;;;;;;1.23;0.40;;;;;;;16.34;55.12;100604.31;5038609;28;20082;-72
2023/01/12 10:39:33;;;;;;;2.38;0.60;;;;;;;16.36;54.55;100607.69;5054923;28;20031;-74
2023/01/12 10:45:20;;;;;;;3.40;0.75;;;;;;;16.33;54.68;100608.06;5057523;28;20554;-73
2023/01/12 10:47:46;;;;;;;7.03;1.15;;;;;;;16.33;54.71;100605.34;5072810;28;20110;-72
2023/01/12 10:50:22;;;;;;;5.45;0.73;;;;;;;16.35;55.91;100606.03;5054884;28;20032;-72
2023/01/12 10:52:53;;;;;;;5.47;0.43;;;;;;;16.37;55.36;100609.38;5072389;28;20519;-71
2023/01/12 10:55:19;;;;;;;6.25;0.65;;;;;;;16.39;55.39;100601.94;5055032;28;20036;-73
2023/01/12 10:57:47;;;;;;;1.90;0.73;;;;;;;16.42;55.80;100607.00;5055315;28;20472;-71
2023/01/12 11:00:22;;;;;;;1.25;0.40;;;;;;;16.44;54.99;100606.84;5054542;28;20115;-72
2023/01/12 11:02:47;;;;;;;2.47;0.47;;;;;;;16.43;54.13;100608.72;5072784;28;20121;-71
2023/01/12 11:05:26;;;;;;;2.30;0.73;;;;;;;16.44;54.75;100599.59;5072431;28;20424;-72
2023/01/12 11:07:51;;;;;;;2.17;0.70;;;;;;;16.47;55.54;100601.09;5054547;28;20039;-70
2023/01/12 11:10:24;;;;;;;2.50;0.50;;;;;;;16.46;54.68;100600.25;5054528;28;20029;-71
2023/01/12 11:12:55;;;;;;;1.83;0.45;;;;;;;16.49;54.96;100597.22;5055171;28;20035;-70
2023/01/12 11:15:20;;;;;;;3.17;0.50;;;;;;;16.52;55.10;100596.88;5072278;28;20534;-73
2023/01/12 11:17:55;;;;;;;2.78;0.50;;;;;;;16.53;55.58;100598.56;5054282;28;20124;-72
2023/01/12 11:20:33;;;;;;;2.75;0.40;;;;;;;16.54;54.57;100600.25;5072348;28;20056;-73
2023/01/12 11:23:01;;;;;;;1.67;0.65;;;;;;;16.56;54.30;100591.97;5054392;28;20029;-72
2023/01/12 11:25:32;;;;;;;0.25;0.22;;;;;;;16.55;55.36;100596.56;5054428;28;20565;-73
2023/01/12 11:28:28;;;;;;;1.77;1.13;;;;;;;16.57;54.92;100599.91;5054238;28;20119;-73
2023/01/12 11:31:10;;;;;;;3.00;0.60;;;;;;;16.57;55.53;100589.09;5052452;28;20111;-72
2023/01/12 11:33:39;;;;;;;2.47;0.38;;;;;;;16.58;54.20;100585.34;5056680;28;20412;-74
2023/01/12 11:36:10;;;;;;;4.80;0.38;;;;;;;16.60;54.58;100594.16;5038000;28;20497;-73
2023/01/12 11:38:42;;;;;;;2.17;0.70;;;;;;;16.59;54.63;100597.88;5055586;28;20102;-72
2023/01/12 11:41:16;;;;;;;0.88;0.50;;;;;;;16.57;55.49;100588.25;5042074;28;20396;-73
2023/01/12 11:43:48;;;;;;;2.08;0.68;;;;;;;16.56;55.97;100592.81;5057947;28;20102;-72
2023/01/12 11:46:35;;;;;;;1.65;0.50;;;;;;;16.59;54.73;100591.63;5057711;28;20480;-74
2023/01/12 11:49:17;;;;;;;4.18;0.50;;;;;;;16.57;55.19;100582.84;5057687;28;20028;-74
2023/01/12 11:51:43;;;;;;;2.67;0.50;;;;;;;16.55;55.20;100593.84;5076024;28;20048;-73
2023/01/12 11:54:17;;;;;;;2.78;0.35;;;;;;;16.56;54.90;100579.28;5075359;28;20546;-72
2023/01/12 11:56:51;;;;;;;4.88;0.93;;;;;;;16.57;55.39;100583.69;5040760;28;20033;-72
2023/01/12 11:59:32;;;;;;;2.40;0.40;;;;;;;16.55;56.00;100588.44;5075412;28;20036;-73
2023/01/12 12:02:03;;;;;;;3.10;0.70;;;;;;;16.55;55.21;100593.84;5075450;28;20032;-72
2023/01/12 12:04:51;;;;;;;7.47;0.43;;;;;;;16.51;54.20;100592.47;5057285;28;20032;-73
2023/01/12 12:07:33;;;;;;;3.42;0.50;;;;;;;16.49;55.38;100589.09;5041407;28;20028;-73
2023/01/12 12:10:21;;;;;;;0.60;0.30;;;;;;;16.51;55.48;100578.94;5043011;28;20028;-75
2023/01/12 12:13:05;;;;;;;0.95;0.38;;;;;;;16.50;55.93;100588.06;5075784;28;20066;-74